Accueil
METAR-TAF:

METAR-TAF

Aéroports :

Harbin, Chine

Aéroport international de Harbin Taiping

latitude: 45-45N, longitude: 126-46E, altitude: 143 m

Observation

Le bulletin a été fait il y a 45 minutes, à 01:00 UTC
Vent 4 kt de sud/sud-est, variant entre est et sud/sud-ouest
Température -12°C
Humidité 61%
Pression 1016 hPa
Visibilité: 6000 m
Nuages épars à une hauteur de 4000 ft

METAR: ZYHB 250100Z 16002MPS 100V200 6000 SCT040 M12/M18 Q1016 NOSIG

Heure: 09:45 (01:45 UTC)

Prévision

Le bulletin a été fait il y a 6 heures et 30 minutes, à 19:15 UTC
Prévision valable du 25 à 00 UTC au 25 à 24 UTC
Vent 6 kt de nord/nord-ouest
Visibilité: 6000 m
Quelques nuages à une hauteur de 3000 ft

TAF: ZYHB 241915Z 2500/2524 33003MPS 6000 FEW030 TXM08/06Z TNM20/22Z

Observations et prévisions météorologiques de plus de 4000 aéroports (messages METAR et TAF).

Les stations disponibles sont représentées par des disques jaunes et rouges sur la carte.

Passer la souris dessus pour voir le nom de la station.

Cliquer dessus pour voir les observations et prévisions météorologiques.

Pour changer de carte: cliquez sur les boutons verts avec une croix noire pour zoomer, sur le bouton vert avec un tiret pour effectuer un zoom arrière, ou sur les flèches vertes pour les cartes adjacentes.


METAR-TAF: